Time;durP1;ratioP1;P1;durP2;ratioP2;P2;SDS_P1;SDS_P2;PMS_P1;PMS_P2;Temp;Humidity;BMP_temperature;BMP_pressure;BME280_temperature;BME280_humidity;BME280_pressure;Samples;Min_cycle;Max_cycle;Signal;HPM_P1;HPM_P2
2023/05/07 00:02:01;;;;;;;16.00;11.48;;;13.40;99.90;;;-144.05;88.89;56882.81;5056347;28;20021;-77
2023/05/07 00:04:28;;;;;;;34.97;22.48;;;13.40;99.90;;;-144.05;89.17;56880.69;5052966;28;20029;-77
2023/05/07 00:06:53;;;;;;;30.30;23.23;;;13.40;99.90;;;-144.05;89.18;56876.44;5052163;28;20032;-75
2023/05/07 00:09:19;;;;;;;28.45;20.95;;;13.40;99.90;;;-144.05;89.20;56861.56;5034837;28;20040;-75
2023/05/07 00:11:45;;;;;;;24.42;18.30;;;13.30;99.90;;;-144.05;89.24;56889.19;5053634;28;20029;-76
2023/05/07 00:14:11;;;;;;;23.95;17.10;;;13.30;99.90;;;-144.05;89.26;56876.44;5053197;28;20067;-75
2023/05/07 00:16:37;;;;;;;20.33;15.30;;;13.30;99.90;;;-144.05;89.13;56876.44;5053348;28;20021;-78
2023/05/07 00:19:03;;;;;;;18.77;14.77;;;13.20;99.90;;;-144.05;89.09;56872.19;5053167;28;20423;-76
2023/05/07 00:21:30;;;;;;;21.65;16.40;;;13.20;99.90;;;-144.05;89.36;56867.94;5052567;28;20025;-76
2023/05/07 00:23:56;;;;;;;16.90;15.13;;;13.20;99.90;;;-144.05;89.40;56874.31;5052923;28;20029;-75
2023/05/07 00:26:22;;;;;;;17.52;14.00;;;13.20;99.90;;;-144.05;89.60;56882.81;5052582;28;20029;-75
2023/05/07 00:28:48;;;;;;;16.80;12.50;;;13.20;99.90;;;-144.05;89.65;56874.31;5034535;28;20492;-75
2023/05/07 00:31:14;;;;;;;20.55;14.43;;;13.20;99.90;;;-144.05;89.50;56870.06;5033960;28;20032;-76
2023/05/07 00:33:40;;;;;;;17.55;13.00;;;13.30;99.90;;;-144.05;89.62;56876.44;5052292;28;20029;-75
2023/05/07 00:36:06;;;;;;;14.32;12.07;;;13.30;99.90;;;-144.05;89.69;56870.06;5034764;28;20036;-76
2023/05/07 00:38:32;;;;;;;16.05;13.02;;;13.30;99.90;;;-144.05;89.55;56880.69;5052765;28;20028;-77
2023/05/07 00:40:57;;;;;;;17.02;13.27;;;13.30;99.90;;;-144.05;89.67;56859.47;5056719;28;20047;-77
2023/05/07 00:43:23;;;;;;;20.42;15.38;;;13.30;99.90;;;-144.05;89.67;56901.94;5056423;28;20031;-76
2023/05/07 00:45:49;;;;;;;17.80;14.18;;;13.30;99.90;;;-144.05;89.61;56861.56;5038072;28;20037;-77
2023/05/07 00:48:16;;;;;;;18.80;14.80;;;13.30;99.90;;;-144.05;89.74;56897.69;5054939;28;20029;-76
2023/05/07 00:50:43;;;;;;;18.25;14.00;;;13.30;99.90;;;-144.05;89.84;56863.69;5037236;28;20049;-75
2023/05/07 00:53:09;;;;;;;21.67;14.98;;;13.40;99.90;;;-144.05;89.96;56870.06;5038136;28;20036;-76
2023/05/07 00:55:36;;;;;;;17.63;13.75;;;13.40;99.90;;;-144.05;89.91;56863.69;5054984;28;20392;-76
2023/05/07 00:58:02;;;;;;;18.17;14.70;;;13.40;99.90;;;-144.05;90.07;56870.06;5055762;28;20392;-77
2023/05/07 01:00:28;;;;;;;16.17;13.82;;;13.40;99.90;;;-144.05;90.14;56857.34;5056399;28;20436;-77
2023/05/07 01:02:54;;;;;;;20.60;16.27;;;13.40;99.90;;;-144.05;90.45;56887.06;5055812;28;20059;-78
2023/05/07 01:05:24;;;;;;;20.30;15.43;;;13.40;99.90;;;-144.05;90.45;56870.06;5056274;28;20113;-78
2023/05/07 01:07:55;;;;;;;18.17;15.38;;;13.40;99.90;;;-144.05;90.60;56870.06;5055986;28;20025;-77
2023/05/07 01:10:22;;;;;;;26.92;19.13;;;13.40;99.90;;;-144.05;90.97;56893.44;5056100;28;20029;-76
2023/05/07 01:12:50;;;;;;;27.58;17.98;;;13.40;99.90;;;-144.05;90.92;56895.56;5055952;28;20051;-77
2023/05/07 01:15:17;;;;;;;23.27;18.73;;;13.40;99.90;;;-144.05;90.40;56893.44;5055603;28;20035;-76
2023/05/07 01:17:45;;;;;;;25.58;19.17;;;13.40;99.90;;;-144.05;90.45;56889.19;5055529;28;20448;-77
2023/05/07 01:20:11;;;;;;;24.58;18.50;;;13.50;99.90;;;-144.05;90.39;56889.19;5056153;28;20056;-78
2023/05/07 01:22:38;;;;;;;24.83;18.63;;;13.40;99.90;;;-144.05;90.40;56861.56;5056057;28;20024;-75
2023/05/07 01:25:07;;;;;;;26.67;18.73;;;13.40;99.90;;;-144.05;90.62;56872.19;5055905;28;20051;-76
2023/05/07 01:27:36;;;;;;;19.77;16.77;;;13.40;99.90;;;-144.05;90.31;56863.69;5055486;28;20064;-77
2023/05/07 01:30:06;;;;;;;23.73;16.25;;;13.40;99.90;;;-144.05;90.47;56861.56;5037553;28;20048;-78
2023/05/07 01:33:10;;;;;;;18.05;14.77;;;13.40;99.90;;;-144.05;90.67;56884.94;5055135;28;20033;-75
2023/05/07 01:35:45;;;;;;;17.98;14.85;;;13.40;99.90;;;-144.05;90.63;56870.06;5056084;28;20044;-77
2023/05/07 01:38:13;;;;;;;21.33;16.30;;;13.40;99.90;;;-144.05;90.60;56880.69;5055275;28;20029;-77
2023/05/07 01:40:39;;;;;;;19.10;14.65;;;13.30;99.90;;;-144.05;90.60;56865.81;5055267;28;20021;-78
2023/05/07 01:43:06;;;;;;;19.10;14.15;;;13.30;99.90;;;-144.05;90.72;56874.31;5055763;28;20536;-77
2023/05/07 01:45:34;;;;;;;15.32;13.23;;;13.30;99.90;;;-144.05;90.62;56887.06;5057852;28;20036;-75
2023/05/07 01:48:03;;;;;;;22.40;16.52;;;13.20;99.90;;;-144.05;90.66;56889.19;5058266;28;20037;-77
2023/05/07 01:50:32;;;;;;;23.20;17.30;;;13.20;99.90;;;-144.05;90.74;56878.56;5060574;28;20029;-78
2023/05/07 01:52:58;;;;;;;21.02;15.55;;;13.20;99.90;;;-144.05;90.83;56876.44;5057134;28;20037;-77
2023/05/07 01:55:23;;;;;;;24.27;17.63;;;13.20;99.90;;;-144.05;90.88;56861.56;5055838;28;20053;-77
2023/05/07 01:57:49;;;;;;;18.58;15.10;;;13.10;99.90;;;-144.05;90.65;56867.94;5055911;28;20025;-80
2023/05/07 02:00:16;;;;;;;17.52;14.95;;;13.10;99.90;;;-144.05;90.77;56880.69;5057952;28;20499;-78
2023/05/07 02:02:42;;;;;;;23.70;17.38;;;13.10;99.90;;;-144.05;90.82;56882.81;5037684;28;20025;-78
2023/05/07 02:05:08;;;;;;;22.77;17.52;;;13.10;99.90;;;-144.05;90.84;56865.81;5038372;28;20461;-76
2023/05/07 02:07:34;;;;;;;24.23;19.27;;;13.10;99.90;;;-144.05;90.76;56889.19;5055567;28;20036;-76
2023/05/07 02:10:00;;;;;;;25.45;18.77;;;13.00;99.90;;;-144.05;90.75;56891.31;5054815;28;20033;-77
2023/05/07 02:12:26;;;;;;;23.95;19.27;;;13.10;99.90;;;-144.05;90.83;56865.81;5056295;28;20082;-78
2023/05/07 02:14:51;;;;;;;24.50;18.85;;;13.10;99.90;;;-144.05;90.72;56874.31;5055775;28;20396;-78
2023/05/07 02:17:17;;;;;;;21.60;17.75;;;13.10;99.90;;;-144.05;90.92;56889.19;5037631;28;20048;-77
2023/05/07 02:19:43;;;;;;;25.58;18.55;;;13.10;99.90;;;-144.05;90.78;56874.31;5054941;28;20033;-77
2023/05/07 02:22:10;;;;;;;25.63;17.75;;;13.00;99.90;;;-144.05;90.97;56887.06;5036833;28;20021;-76
2023/05/07 02:24:36;;;;;;;20.30;17.00;;;13.00;99.90;;;-144.05;91.05;56880.69;5055282;28;20075;-77
2023/05/07 02:27:03;;;;;;;23.23;18.67;;;13.00;99.90;;;-144.05;91.08;56865.81;5055279;28;20029;-77
2023/05/07 02:29:29;;;;;;;28.10;20.88;;;12.90;99.90;;;-144.05;91.03;56904.06;5054914;28;20075;-77
2023/05/07 02:31:55;;;;;;;24.65;19.52;;;12.90;99.90;;;-144.05;91.04;56872.19;5037614;28;20032;-77
2023/05/07 02:34:21;;;;;;;25.65;22.00;;;12.80;99.90;;;-144.05;91.28;56884.94;5056732;28;20033;-75
2023/05/07 02:36:47;;;;;;;26.10;20.63;;;12.80;99.90;;;-144.05;91.31;56895.56;5056332;28;20064;-77
2023/05/07 02:39:14;;;;;;;33.33;26.15;;;12.80;99.90;;;-144.05;91.38;56876.44;5060524;28;20035;-76
2023/05/07 02:41:39;;;;;;;33.17;25.35;;;12.80;99.90;;;-144.05;91.55;56891.31;5058234;28;20112;-77
2023/05/07 02:44:05;;;;;;;28.30;23.30;;;12.80;99.90;;;-144.05;91.45;56882.81;5055875;28;20029;-75
2023/05/07 02:46:31;;;;;;;29.55;22.25;;;12.80;99.90;;;-144.05;91.37;56904.06;5055938;28;20037;-76
2023/05/07 02:48:57;;;;;;;26.73;21.15;;;12.80;99.90;;;-144.05;91.41;56876.44;5037816;28;20037;-78
2023/05/07 02:51:23;;;;;;;19.60;16.35;;;12.80;99.90;;;-144.05;91.58;56867.94;5055063;28;20242;-78
2023/05/07 02:53:49;;;;;;;24.50;16.83;;;12.90;99.90;;;-144.05;91.75;56882.81;5055422;28;20037;-78
2023/05/07 02:56:15;;;;;;;19.73;16.45;;;12.90;99.90;;;-144.05;91.50;56889.19;5054572;28;20075;-77
2023/05/07 02:58:44;;;;;;;21.60;16.13;;;12.90;99.90;;;-144.05;91.53;56878.56;5054408;28;20021;-78
2023/05/07 03:01:10;;;;;;;18.98;14.85;;;12.90;99.90;;;-144.05;91.66;56865.81;5054301;28;20029;-76
2023/05/07 03:03:36;;;;;;;22.58;17.10;;;12.90;99.90;;;-144.05;91.80;56848.84;5054223;28;20036;-76
2023/05/07 03:06:02;;;;;;;25.58;17.23;;;12.90;99.90;;;-144.05;92.18;56891.31;5054499;28;20559;-75
2023/05/07 03:08:28;;;;;;;22.25;16.13;;;13.00;99.90;;;-144.05;92.36;56889.19;5054144;28;20037;-76
2023/05/07 03:10:54;;;;;;;20.52;15.70;;;13.00;99.90;;;-144.05;91.96;56863.69;5036171;28;20444;-77
2023/05/07 03:13:20;;;;;;;19.80;15.77;;;13.00;99.90;;;-144.05;92.23;56884.94;5036209;28;20514;-78
2023/05/07 03:15:46;;;;;;;23.67;16.17;;;13.00;99.90;;;-144.05;92.06;56855.22;5054078;28;20033;-77
2023/05/07 03:18:11;;;;;;;22.88;17.02;;;13.00;99.90;;;-144.05;92.52;56876.44;5057685;28;20389;-78
2023/05/07 03:20:37;;;;;;;28.13;18.63;;;13.00;99.90;;;-144.05;92.54;56874.31;5069379;28;20039;-77
2023/05/07 03:23:03;;;;;;;24.13;18.73;;;13.00;99.90;;;-144.05;92.29;56889.19;5056053;28;20028;-77
2023/05/07 03:25:32;;;;;;;26.40;18.38;;;13.00;99.90;;;-144.05;92.18;56884.94;5053594;28;20519;-78
2023/05/07 03:27:58;;;;;;;20.83;16.70;;;13.00;99.90;;;-144.05;92.11;56872.19;5052512;28;20040;-73
2023/05/07 03:30:24;;;;;;;18.65;16.65;;;13.00;99.90;;;-144.05;91.95;56887.06;5052960;28;20099;-77
2023/05/07 03:32:50;;;;;;;22.35;17.05;;;13.00;99.90;;;-144.05;92.06;56878.56;5052969;28;20108;-76
2023/05/07 03:35:16;;;;;;;22.58;16.50;;;13.00;99.90;;;-144.05;92.14;56895.56;5052868;28;20071;-77
2023/05/07 03:37:42;;;;;;;19.70;17.60;;;12.90;99.90;;;-144.05;92.14;56874.31;5052799;28;20021;-76
2023/05/07 03:40:10;;;;;;;20.30;16.23;;;12.90;99.90;;;-144.05;92.08;56876.44;5034863;28;20446;-77
2023/05/07 03:42:36;;;;;;;22.58;17.67;;;12.90;99.90;;;-144.05;92.04;56895.56;5054810;28;20028;-76
2023/05/07 03:45:02;;;;;;;19.70;15.38;;;12.90;99.90;;;-144.05;92.05;56906.19;5054705;28;20033;-77
2023/05/07 03:47:28;;;;;;;19.38;15.95;;;13.00;99.90;;;-144.05;92.29;56882.81;5033242;23;20079;-78
2023/05/07 03:49:55;;;;;;;20.38;17.33;;;12.90;99.90;;;-144.05;92.33;56878.56;4988652;28;20026;-77
2023/05/07 03:52:25;;;;;;;21.17;15.77;;;12.90;99.90;;;-144.05;91.91;56874.31;5005050;28;20061;-76
2023/05/07 03:54:53;;;;;;;20.48;15.52;;;12.90;99.90;;;-144.05;91.89;56891.31;4987557;28;20037;-76
2023/05/07 03:57:20;;;;;;;23.30;16.95;;;12.90;99.90;;;-144.05;92.16;56865.81;5000690;28;20106;-76
2023/05/07 03:59:45;;;;;;;17.33;15.05;;;12.90;99.90;;;-144.05;91.99;56880.69;4968845;28;20034;-74
2023/05/07 04:02:11;;;;;;;20.98;16.67;;;12.90;99.90;;;-144.05;91.99;56865.81;4980349;28;20023;-76
2023/05/07 04:04:37;;;;;;;21.58;16.85;;;12.90;99.90;;;-144.05;91.98;56893.44;4976218;28;20042;-80
2023/05/07 04:07:03;;;;;;;20.42;16.58;;;13.00;99.90;;;-144.05;91.90;56891.31;4958894;28;20375;-79
2023/05/07 04:09:29;;;;;;;23.15;15.90;;;12.90;99.90;;;-144.05;91.88;56904.06;4976281;28;20055;-77
2023/05/07 04:11:54;;;;;;;18.50;15.73;;;12.90;99.90;;;-144.05;92.33;56880.69;4976143;28;20375;-78
2023/05/07 04:14:20;;;;;;;20.30;16.70;;;12.90;99.90;;;-144.05;91.92;56889.19;4960759;28;20034;-78
2023/05/07 04:16:46;;;;;;;21.05;15.82;;;12.90;99.90;;;-144.05;91.65;56872.19;4963214;28;20033;-75
2023/05/07 04:19:12;;;;;;;16.35;14.27;;;12.90;99.90;;;-144.05;91.79;56865.81;4979763;28;20031;-78
2023/05/07 04:21:38;;;;;;;20.15;15.95;;;13.00;99.90;;;-144.05;91.96;56870.06;4962852;28;20118;-79
2023/05/07 04:24:04;;;;;;;20.92;15.85;;;12.90;99.90;;;-144.05;92.10;56908.31;4963092;28;20031;-76
2023/05/07 04:26:30;;;;;;;19.38;14.52;;;12.90;99.90;;;-144.05;91.88;56889.19;4978504;28;20077;-78
2023/05/07 04:28:57;;;;;;;18.63;14.95;;;12.90;99.90;;;-144.05;91.83;56887.06;4979385;28;20038;-77
2023/05/07 04:31:23;;;;;;;18.35;15.30;;;13.00;99.90;;;-144.05;91.65;56889.19;4980118;28;20101;-77
2023/05/07 04:33:50;;;;;;;20.88;16.02;;;13.00;99.90;;;-144.05;91.63;56914.69;4979982;28;20026;-77
2023/05/07 04:36:16;;;;;;;17.92;14.93;;;13.00;99.90;;;-144.05;91.82;56889.19;4979582;28;20452;-79
2023/05/07 04:38:42;;;;;;;19.13;15.20;;;13.00;99.90;;;-144.05;91.51;56893.44;4979292;28;20042;-77
2023/05/07 04:41:09;;;;;;;15.80;13.73;;;13.00;99.90;;;-144.05;91.30;56861.56;4977638;28;20027;-77
2023/05/07 04:43:35;;;;;;;17.38;14.48;;;13.10;99.90;;;-144.05;91.03;56882.81;4979843;28;20034;-80
2023/05/07 04:46:01;;;;;;;18.10;14.30;;;13.10;99.90;;;-144.05;91.01;56880.69;4962203;28;20403;-77
2023/05/07 04:48:28;;;;;;;17.35;14.32;;;13.10;99.90;;;-144.05;90.79;56867.94;4978906;28;20039;-78
2023/05/07 04:50:54;;;;;;;18.42;13.57;;;13.20;99.90;;;-144.05;91.04;56882.81;4961258;28;20498;-77
2023/05/07 04:53:21;;;;;;;20.40;16.05;;;13.20;99.90;;;-144.05;90.57;56891.31;4979106;28;20047;-77
2023/05/07 04:55:47;;;;;;;19.55;13.95;;;13.30;99.90;;;-144.05;90.61;56882.81;4978559;28;20076;-78
2023/05/07 04:58:13;;;;;;;16.98;12.75;;;13.30;99.90;;;-144.05;90.11;56848.84;4977744;28;20031;-78
2023/05/07 05:00:40;;;;;;;13.65;12.02;;;13.40;99.90;;;-144.05;89.78;56901.94;4961888;28;20371;-78
2023/05/07 05:03:07;;;;;;;14.43;11.35;;;13.40;99.90;;;-144.05;89.92;56887.06;4979288;28;20099;-78
2023/05/07 05:05:33;;;;;;;16.13;11.88;;;13.50;99.90;;;-144.05;89.21;56897.69;4978809;28;20045;-79
2023/05/07 05:07:59;;;;;;;14.05;11.90;;;13.50;99.90;;;-144.05;89.18;56884.94;4978587;28;20079;-78
2023/05/07 05:10:25;;;;;;;15.50;11.23;;;13.60;99.90;;;-144.05;88.75;56880.69;4978634;28;20479;-78
2023/05/07 05:12:51;;;;;;;11.88;10.20;;;13.70;99.90;;;-144.05;88.49;56878.56;4978761;28;20443;-78
2023/05/07 05:15:17;;;;;;;15.90;10.75;;;13.70;99.90;;;-144.05;87.80;56899.81;4979277;28;20035;-78
2023/05/07 05:17:43;;;;;;;13.25;9.63;;;13.90;99.90;;;-144.05;87.53;56853.09;4977202;28;20034;-78
2023/05/07 05:20:11;;;;;;;11.77;10.00;;;13.90;99.90;;;-144.05;87.16;56908.31;4960655;28;20034;-77
2023/05/07 05:22:38;;;;;;;13.73;9.05;;;14.00;99.90;;;-144.05;87.10;56878.56;4978294;28;20111;-77
2023/05/07 05:25:04;;;;;;;10.93;9.38;;;14.10;99.90;;;-144.05;86.80;56867.94;4960579;28;20420;-79
2023/05/07 05:27:30;;;;;;;14.25;10.68;;;14.20;99.90;;;-144.05;85.50;56863.69;4977799;28;20201;-78
2023/05/07 05:29:56;;;;;;;31.30;21.55;;;14.10;99.90;;;-144.05;85.42;56876.44;4977820;28;20375;-78
2023/05/07 05:32:22;;;;;;;43.15;27.98;;;14.20;99.90;;;-144.05;85.42;56889.19;4978046;28;20038;-78
2023/05/07 05:34:48;;;;;;;27.48;17.17;;;14.20;99.90;;;-144.05;85.37;56880.69;4960345;28;20031;-76
2023/05/07 05:37:14;;;;;;;17.65;13.10;;;14.30;99.90;;;-144.05;85.24;56859.47;4977705;28;20480;-77
2023/05/07 05:39:40;;;;;;;16.50;12.43;;;14.60;99.90;;;-144.05;84.39;56889.19;4977675;28;20117;-79
2023/05/07 05:42:05;;;;;;;9.18;8.27;;;14.80;99.90;;;-144.05;82.76;56872.19;4977965;28;20038;-77
2023/05/07 05:44:31;;;;;;;8.80;7.10;;;15.00;99.90;;;-144.05;80.92;56865.81;4958773;28;20490;-77
2023/05/07 05:46:59;;;;;;;9.18;7.22;;;15.10;99.90;;;-144.05;79.60;56895.56;4975369;28;20450;-77
2023/05/07 05:49:25;;;;;;;7.43;6.25;;;15.40;99.90;;;-144.05;78.26;56904.06;4959431;28;20033;-76
2023/05/07 05:51:51;;;;;;;8.43;6.05;;;15.50;99.90;;;-144.05;77.29;56889.19;4959906;28;20037;-77
2023/05/07 05:54:17;;;;;;;7.65;5.97;;;15.70;99.90;;;-144.05;76.16;56904.06;4959012;28;20027;-77
2023/05/07 05:56:43;;;;;;;9.18;5.88;;;15.80;99.90;;;-144.05;76.02;56889.19;4976992;28;20487;-77
2023/05/07 05:59:10;;;;;;;5.40;4.90;;;16.00;99.90;;;-144.05;74.76;56893.44;4958640;28;20069;-76
2023/05/07 06:01:36;;;;;;;6.35;4.93;;;16.00;99.90;;;-144.05;74.16;56908.31;4976667;28;20448;-78
2023/05/07 06:04:01;;;;;;;9.20;5.95;;;16.00;99.90;;;-144.05;74.75;56889.19;4959664;28;20031;-77
2023/05/07 06:06:28;;;;;;;6.95;5.53;;;16.00;99.90;;;-144.05;73.87;56925.28;4977106;28;20042;-78
2023/05/07 06:08:53;;;;;;;10.25;7.53;;;16.00;99.90;;;-144.05;73.78;56891.31;4977185;28;20042;-78
2023/05/07 06:11:20;;;;;;;9.23;5.70;;;16.00;99.90;;;-144.05;74.64;56901.94;4975714;28;20122;-76
2023/05/07 06:13:45;;;;;;;9.85;5.57;;;15.90;99.90;;;-144.05;73.62;56889.19;4977042;28;20106;-77
2023/05/07 06:16:11;;;;;;;7.07;5.35;;;16.10;99.90;;;-144.05;72.81;56889.19;4975409;28;20446;-78
2023/05/07 06:18:37;;;;;;;7.22;4.60;;;16.30;99.90;;;-144.05;71.62;56908.31;4976515;28;20039;-76
2023/05/07 06:21:03;;;;;;;6.60;5.28;;;16.60;99.90;;;-144.05;70.74;56931.66;4976809;28;20050;-79
2023/05/07 06:23:29;;;;;;;4.65;4.07;;;16.90;99.90;;;-144.05;69.75;56912.56;4976718;28;20314;-78
2023/05/07 06:25:55;;;;;;;5.60;4.50;;;16.90;99.90;;;-144.05;68.17;56916.81;4978194;28;20051;-78
2023/05/07 06:28:21;;;;;;;5.30;4.47;;;16.90;99.90;;;-144.05;67.79;56916.81;4977445;28;20042;-78
2023/05/07 06:30:47;;;;;;;6.47;4.70;;;16.90;99.90;;;-144.05;68.69;56908.31;4978740;28;20537;-77
2023/05/07 06:33:12;;;;;;;8.20;4.88;;;17.00;99.90;;;-144.05;68.47;56912.56;4977197;28;20114;-78
2023/05/07 06:35:38;;;;;;;6.53;4.70;;;17.00;99.90;;;-144.05;69.47;56895.56;4975846;28;20054;-78
2023/05/07 06:38:04;;;;;;;25.63;12.05;;;16.80;99.90;;;-144.05;70.41;56914.69;4976028;28;20022;-79
2023/05/07 06:40:30;;;;;;;6.85;5.15;;;16.70;99.90;;;-144.05;70.55;56897.69;4960349;28;20053;-78
2023/05/07 06:42:56;;;;;;;7.60;5.10;;;16.70;99.90;;;-144.05;70.53;56904.06;4977392;28;20027;-78
2023/05/07 06:45:22;;;;;;;30.55;13.55;;;16.70;99.90;;;-144.05;70.32;56906.19;4959788;28;20031;-78
2023/05/07 06:47:48;;;;;;;121.88;48.38;;;16.90;99.90;;;-144.05;69.75;56916.81;4977978;28;20030;-78
2023/05/07 06:50:16;;;;;;;23.05;11.18;;;17.00;99.90;;;-144.05;70.04;56925.28;4978296;28;20266;-79
2023/05/07 06:52:42;;;;;;;6.05;5.22;;;17.10;99.90;;;-144.05;70.36;56874.31;4977692;28;20027;-79
2023/05/07 06:55:09;;;;;;;18.27;11.80;;;16.90;99.90;;;-144.05;70.51;56916.81;4976316;28;20289;-79
2023/05/07 06:57:35;;;;;;;10.43;7.13;;;16.80;99.90;;;-144.05;70.24;56916.81;4974209;28;20030;-76
2023/05/07 07:00:01;;;;;;;12.20;8.23;;;16.90;99.90;;;-144.05;69.90;56906.19;4976083;28;20082;-74
2023/05/07 07:02:26;;;;;;;6.72;6.00;;;16.90;99.90;;;-144.05;69.65;56927.41;4974853;28;20526;-75
2023/05/07 07:04:52;;;;;;;7.05;4.35;;;16.90;99.90;;;-144.05;70.13;56918.94;4956199;28;20388;-77
2023/05/07 07:07:18;;;;;;;7.70;4.50;;;17.10;99.90;;;-144.05;70.34;56891.31;4975077;28;20372;-77
2023/05/07 07:09:44;;;;;;;5.78;4.53;;;17.20;99.90;;;-144.05;69.75;56923.19;4975400;28;20030;-79
2023/05/07 07:12:10;;;;;;;5.63;4.20;;;17.20;99.90;;;-144.05;68.87;56910.44;4976390;28;20054;-78
2023/05/07 07:14:35;;;;;;;8.98;4.97;;;17.40;99.90;;;-144.05;68.42;56910.44;4976134;28;20510;-78
2023/05/07 07:17:01;;;;;;;7.55;4.85;;;17.50;99.90;;;-144.05;67.97;56908.31;4975669;28;20038;-78
2023/05/07 07:19:28;;;;;;;6.78;4.35;;;17.60;99.90;;;-144.05;67.49;56893.44;4975967;28;20102;-76
2023/05/07 07:21:54;;;;;;;5.18;4.68;;;17.70;99.90;;;-144.05;67.70;56893.44;4975648;28;20383;-78
2023/05/07 07:24:21;;;;;;;6.68;4.45;;;17.80;99.90;;;-144.05;66.85;56897.69;4976175;28;20207;-78
2023/05/07 07:26:47;;;;;;;9.05;5.05;;;17.80;99.90;;;-144.05;67.27;56884.94;4975819;28;20548;-78
2023/05/07 07:29:13;;;;;;;6.07;5.35;;;17.70;99.90;;;-144.05;67.66;56904.06;4977069;28;20088;-79
2023/05/07 07:31:39;;;;;;;8.55;5.25;;;17.50;99.90;;;-144.05;68.69;56927.41;4977019;28;20089;-76
2023/05/07 07:34:05;;;;;;;7.30;4.80;;;17.40;99.90;;;-144.05;68.48;56914.69;4958967;28;20027;-79
2023/05/07 07:36:31;;;;;;;7.90;4.97;;;17.20;99.90;;;-144.05;68.52;56906.19;4974088;28;20101;-76
2023/05/07 07:38:57;;;;;;;6.70;5.13;;;17.30;99.90;;;-144.05;68.38;56916.81;4976000;28;20482;-78
2023/05/07 07:41:23;;;;;;;6.68;5.43;;;17.50;99.90;;;-144.05;67.55;56910.44;4979545;28;20031;-79
2023/05/07 07:43:48;;;;;;;7.30;5.03;;;17.60;99.90;;;-144.05;67.75;56914.69;4963702;28;20395;-79
2023/05/07 07:46:14;;;;;;;7.35;5.30;;;17.70;99.90;;;-144.05;68.17;56904.06;4977902;28;20050;-77
2023/05/07 07:48:40;;;;;;;5.10;4.47;;;17.70;99.90;;;-144.05;66.48;56916.81;4973575;28;20154;-77
2023/05/07 07:51:06;;;;;;;7.32;5.10;;;18.10;99.90;;;-144.05;64.75;56904.06;4974883;28;20042;-77
2023/05/07 07:53:31;;;;;;;11.35;5.40;;;18.50;99.90;;;-144.05;64.69;56925.28;4974684;28;20034;-76
2023/05/07 07:55:57;;;;;;;4.85;4.00;;;18.80;99.90;;;-144.05;61.96;56910.44;4959217;28;20077;-77
2023/05/07 07:58:24;;;;;;;7.45;5.20;;;19.00;99.90;;;-144.05;63.24;56933.78;4959278;28;20030;-77
2023/05/07 08:00:50;;;;;;;5.88;4.40;;;18.90;99.90;;;-144.05;62.85;56927.41;4977123;28;20462;-77
2023/05/07 08:03:16;;;;;;;5.53;4.75;;;18.90;99.90;;;-144.05;61.31;56942.28;4976005;28;20027;-77
2023/05/07 08:05:43;;;;;;;6.70;4.95;;;19.00;99.90;;;-144.05;61.96;56927.41;4976013;28;20042;-77
2023/05/07 08:08:09;;;;;;;7.72;4.40;;;18.80;99.90;;;-144.05;61.97;56929.53;4957755;28;20054;-76
2023/05/07 08:10:38;;;;;;;7.45;4.38;;;18.70;99.90;;;-144.05;62.27;56925.28;4959463;28;20038;-78
2023/05/07 08:13:04;;;;;;;8.52;5.07;;;18.90;99.90;;;-144.05;62.68;56948.66;4979487;28;20034;-76
2023/05/07 08:15:30;;;;;;;7.10;5.05;;;18.90;99.90;;;-144.05;61.96;56935.91;4978534;28;20068;-77
2023/05/07 08:17:59;;;;;;;7.70;5.18;;;19.00;99.90;;;-144.05;61.52;56925.28;4959684;28;20462;-78
2023/05/07 08:20:26;;;;;;;7.93;5.78;;;19.10;99.90;;;-144.05;61.08;56938.03;4957674;28;20109;-78
2023/05/07 08:22:52;;;;;;;9.35;5.53;;;19.10;99.90;;;-144.05;61.23;56918.94;4975062;28;20105;-78
2023/05/07 08:25:18;;;;;;;6.22;5.45;;;19.00;99.90;;;-144.05;61.66;56927.41;4977446;28;20031;-78
2023/05/07 08:27:44;;;;;;;10.45;5.65;;;19.00;99.90;;;-144.05;60.74;56927.41;4957977;28;20045;-77
2023/05/07 08:30:11;;;;;;;9.23;6.00;;;19.10;99.90;;;-144.05;61.01;56935.91;4976889;28;20092;-78
2023/05/07 08:32:37;;;;;;;8.27;6.15;;;18.90;99.90;;;-144.05;61.26;56946.53;4959566;28;20506;-77
2023/05/07 08:35:04;;;;;;;8.60;6.70;;;18.90;99.90;;;-144.05;61.00;56925.28;4973718;28;20043;-75
2023/05/07 08:37:30;;;;;;;8.63;6.22;;;19.00;99.90;;;-144.05;61.71;56925.28;4974707;28;20037;-77
2023/05/07 08:39:56;;;;;;;9.15;7.45;;;18.90;99.90;;;-144.05;61.17;56942.28;4973862;28;20102;-77
2023/05/07 08:42:24;;;;;;;9.93;7.22;;;19.10;99.90;;;-144.05;59.58;56933.78;4974881;28;20045;-76
2023/05/07 08:44:54;;;;;;;11.25;8.77;;;19.50;99.90;;;-144.05;59.93;56933.78;4973959;28;20050;-78
2023/05/07 08:47:29;;;;;;;12.07;9.27;;;19.60;99.90;;;-144.05;59.06;56942.28;4957678;28;20117;-78
2023/05/07 08:49:55;;;;;;;13.30;9.57;;;19.70;99.90;;;-144.05;60.60;56933.78;4957064;28;20529;-77
2023/05/07 08:52:21;;;;;;;16.80;8.45;;;19.40;99.90;;;-144.05;61.14;56944.41;4975287;28;20302;-78
2023/05/07 08:54:47;;;;;;;10.35;7.85;;;19.40;99.90;;;-144.05;60.67;56946.53;4974484;28;20479;-77
2023/05/07 08:57:13;;;;;;;10.52;7.97;;;19.40;99.90;;;-144.05;60.43;56935.91;4956700;28;20038;-77
2023/05/07 08:59:40;;;;;;;10.73;7.75;;;19.60;99.90;;;-144.05;59.65;56938.03;4973791;28;20027;-77
2023/05/07 09:02:11;;;;;;;10.57;7.57;;;19.90;99.90;;;-144.05;59.31;56950.78;4975139;28;20030;-77
2023/05/07 09:04:37;;;;;;;10.48;8.25;;;20.50;99.90;;;-144.05;56.32;56974.16;4976077;28;20034;-77
2023/05/07 09:07:05;;;;;;;9.68;8.40;;;20.80;99.90;;;-144.05;54.85;56986.91;4960940;28;20057;-78
2023/05/07 09:09:33;;;;;;;10.68;8.35;;;21.30;99.90;;;-144.05;52.92;56978.41;4977995;28;20061;-79
2023/05/07 09:12:00;;;;;;;10.07;8.40;;;21.90;99.90;;;-144.05;52.50;56978.41;4976942;28;20030;-78
2023/05/07 09:14:26;;;;;;;9.82;7.13;;;21.90;99.90;;;-144.05;52.20;56967.78;4976935;28;20019;-76
2023/05/07 09:16:55;;;;;;;8.13;7.30;;;21.60;99.90;;;-144.05;51.99;56986.91;4976541;28;20035;-77
2023/05/07 09:19:26;;;;;;;14.30;8.27;;;21.50;99.90;;;-144.05;53.06;56959.28;4977525;28;20565;-77
2023/05/07 09:22:06;;;;;;;9.77;7.75;;;21.30;99.90;;;-144.05;54.33;56982.66;4976453;28;20031;-76
2023/05/07 09:24:37;;;;;;;9.48;7.63;;;21.10;99.90;;;-144.05;55.11;56965.66;4976238;28;20069;-77
2023/05/07 09:27:09;;;;;;;10.07;8.60;;;20.90;99.90;;;-144.05;55.45;56969.91;4976020;28;20023;-75
2023/05/07 09:29:35;;;;;;;9.35;8.35;;;20.90;99.90;;;-144.05;55.21;56963.53;4976037;28;20116;-76
2023/05/07 09:32:04;;;;;;;9.73;7.50;;;20.60;99.90;;;-144.05;54.77;56963.53;4975982;28;20076;-76
2023/05/07 09:34:31;;;;;;;9.32;7.68;;;20.50;99.90;;;-144.05;54.66;56955.03;4975757;28;20042;-76
2023/05/07 09:37:02;;;;;;;13.40;9.82;;;20.50;99.90;;;-144.05;55.83;56952.91;4958245;28;20031;-76
2023/05/07 09:39:47;;;;;;;12.02;8.80;;;20.50;99.90;;;-144.05;55.84;56938.03;4974125;28;20038;-75
2023/05/07 09:42:16;;;;;;;10.10;7.45;;;20.70;99.90;;;-144.05;54.36;56976.28;4957977;28;20027;-77
2023/05/07 09:44:44;;;;;;;12.80;9.02;;;21.20;99.90;;;-144.05;53.50;56976.28;4975260;28;20027;-77
2023/05/07 09:47:17;;;;;;;11.73;8.80;;;21.50;99.90;;;-144.05;53.30;56961.41;4975211;28;20038;-75
2023/05/07 09:49:48;;;;;;;9.43;7.15;;;21.60;99.90;;;-144.05;51.69;56965.66;4975788;28;20034;-76
2023/05/07 09:52:16;;;;;;;10.18;8.07;;;21.60;99.90;;;-144.05;50.53;56989.00;4976085;28;20019;-76
2023/05/07 09:54:43;;;;;;;11.60;8.68;;;21.80;99.90;;;-144.05;50.00;56984.78;4975929;28;20031;-75
2023/05/07 09:57:12;;;;;;;8.93;7.40;;;21.90;99.90;;;-144.05;50.12;56989.00;4975309;28;20529;-76